sensor_id;sensor_type;location;lat;lon;timestamp;P1;durP1;ratioP1;P2;durP2;ratioP2
65936;SDS011;52707;52.086;5.418;2023-08-08T00:00:53;15.73;;;3.70;;
65936;SDS011;52707;52.086;5.418;2023-08-08T00:03:20;18.60;;;3.50;;
65936;SDS011;52707;52.086;5.418;2023-08-08T00:05:46;12.63;;;3.50;;
65936;SDS011;52707;52.086;5.418;2023-08-08T00:08:12;19.42;;;3.65;;
65936;SDS011;52707;52.086;5.418;2023-08-08T00:10:39;16.92;;;3.10;;
65936;SDS011;52707;52.086;5.418;2023-08-08T00:13:05;14.18;;;3.95;;
65936;SDS011;52707;52.086;5.418;2023-08-08T00:15:31;15.38;;;3.65;;
65936;SDS011;52707;52.086;5.418;2023-08-08T00:17:59;11.75;;;2.97;;
65936;SDS011;52707;52.086;5.418;2023-08-08T00:20:25;17.52;;;3.95;;
65936;SDS011;52707;52.086;5.418;2023-08-08T00:22:51;16.38;;;3.60;;
65936;SDS011;52707;52.086;5.418;2023-08-08T00:25:18;12.15;;;3.08;;
65936;SDS011;52707;52.086;5.418;2023-08-08T00:27:44;19.00;;;2.97;;
65936;SDS011;52707;52.086;5.418;2023-08-08T00:30:11;12.63;;;3.50;;
65936;SDS011;52707;52.086;5.418;2023-08-08T00:32:39;10.88;;;3.30;;
65936;SDS011;52707;52.086;5.418;2023-08-08T00:35:06;17.33;;;3.55;;
65936;SDS011;52707;52.086;5.418;2023-08-08T00:37:32;15.75;;;3.60;;
65936;SDS011;52707;52.086;5.418;2023-08-08T00:39:59;14.15;;;3.05;;
65936;SDS011;52707;52.086;5.418;2023-08-08T00:42:25;14.68;;;3.50;;
65936;SDS011;52707;52.086;5.418;2023-08-08T00:44:51;19.02;;;3.40;;
65936;SDS011;52707;52.086;5.418;2023-08-08T00:47:18;15.35;;;3.75;;
65936;SDS011;52707;52.086;5.418;2023-08-08T00:49:44;18.48;;;3.30;;
65936;SDS011;52707;52.086;5.418;2023-08-08T00:52:12;18.27;;;3.10;;
65936;SDS011;52707;52.086;5.418;2023-08-08T00:54:40;17.48;;;3.20;;
65936;SDS011;52707;52.086;5.418;2023-08-08T00:57:06;17.35;;;3.10;;
65936;SDS011;52707;52.086;5.418;2023-08-08T00:59:32;18.20;;;3.50;;
65936;SDS011;52707;52.086;5.418;2023-08-08T01:01:59;21.52;;;3.50;;
65936;SDS011;52707;52.086;5.418;2023-08-08T01:04:26;13.60;;;3.55;;
65936;SDS011;52707;52.086;5.418;2023-08-08T01:12:38;17.60;;;3.00;;
65936;SDS011;52707;52.086;5.418;2023-08-08T01:15:05;23.08;;;3.83;;
65936;SDS011;52707;52.086;5.418;2023-08-08T01:17:33;24.83;;;3.28;;
65936;SDS011;52707;52.086;5.418;2023-08-08T01:20:01;14.60;;;3.63;;
65936;SDS011;52707;52.086;5.418;2023-08-08T01:22:30;12.07;;;3.03;;
65936;SDS011;52707;52.086;5.418;2023-08-08T01:24:58;25.02;;;4.20;;
65936;SDS011;52707;52.086;5.418;2023-08-08T01:27:25;17.95;;;3.78;;
65936;SDS011;52707;52.086;5.418;2023-08-08T01:29:52;28.48;;;3.65;;
65936;SDS011;52707;52.086;5.418;2023-08-08T01:32:19;22.55;;;3.92;;
65936;SDS011;52707;52.086;5.418;2023-08-08T01:34:45;17.92;;;3.15;;
65936;SDS011;52707;52.086;5.418;2023-08-08T01:37:17;15.90;;;4.07;;
65936;SDS011;52707;52.086;5.418;2023-08-08T01:39:44;15.90;;;3.30;;
65936;SDS011;52707;52.086;5.418;2023-08-08T01:42:12;22.80;;;3.22;;
65936;SDS011;52707;52.086;5.418;2023-08-08T01:44:40;20.25;;;3.78;;
65936;SDS011;52707;52.086;5.418;2023-08-08T01:47:07;20.52;;;3.35;;
65936;SDS011;52707;52.086;5.418;2023-08-08T01:49:34;24.55;;;3.45;;
65936;SDS011;52707;52.086;5.418;2023-08-08T01:52:00;23.23;;;3.75;;
65936;SDS011;52707;52.086;5.418;2023-08-08T01:54:27;21.08;;;3.72;;
65936;SDS011;52707;52.086;5.418;2023-08-08T01:56:53;17.25;;;3.38;;
65936;SDS011;52707;52.086;5.418;2023-08-08T01:59:19;25.13;;;3.55;;
65936;SDS011;52707;52.086;5.418;2023-08-08T02:01:46;20.70;;;4.30;;
65936;SDS011;52707;52.086;5.418;2023-08-08T02:04:12;17.50;;;3.70;;
65936;SDS011;52707;52.086;5.418;2023-08-08T02:06:39;13.13;;;3.35;;
65936;SDS011;52707;52.086;5.418;2023-08-08T02:09:05;22.95;;;3.92;;
65936;SDS011;52707;52.086;5.418;2023-08-08T02:11:32;13.13;;;3.97;;
65936;SDS011;52707;52.086;5.418;2023-08-08T02:13:58;24.05;;;4.55;;
65936;SDS011;52707;52.086;5.418;2023-08-08T02:16:24;20.60;;;3.72;;
65936;SDS011;52707;52.086;5.418;2023-08-08T02:18:51;24.30;;;3.90;;
65936;SDS011;52707;52.086;5.418;2023-08-08T02:21:17;17.10;;;4.00;;
65936;SDS011;52707;52.086;5.418;2023-08-08T02:23:43;13.38;;;3.70;;
65936;SDS011;52707;52.086;5.418;2023-08-08T02:26:10;17.90;;;4.43;;
65936;SDS011;52707;52.086;5.418;2023-08-08T02:28:36;26.20;;;4.43;;
65936;SDS011;52707;52.086;5.418;2023-08-08T02:31:02;21.92;;;4.50;;
65936;SDS011;52707;52.086;5.418;2023-08-08T02:33:29;25.77;;;4.38;;
65936;SDS011;52707;52.086;5.418;2023-08-08T02:35:55;19.73;;;4.22;;
65936;SDS011;52707;52.086;5.418;2023-08-08T02:38:22;21.05;;;4.13;;
65936;SDS011;52707;52.086;5.418;2023-08-08T02:40:48;21.38;;;4.18;;
65936;SDS011;52707;52.086;5.418;2023-08-08T02:43:15;19.42;;;4.25;;
65936;SDS011;52707;52.086;5.418;2023-08-08T02:45:42;14.13;;;4.00;;
65936;SDS011;52707;52.086;5.418;2023-08-08T02:48:09;17.55;;;3.97;;
65936;SDS011;52707;52.086;5.418;2023-08-08T02:50:35;18.30;;;4.22;;
65936;SDS011;52707;52.086;5.418;2023-08-08T02:53:02;16.25;;;4.25;;
65936;SDS011;52707;52.086;5.418;2023-08-08T02:55:28;21.30;;;5.15;;
65936;SDS011;52707;52.086;5.418;2023-08-08T02:57:54;27.80;;;5.65;;
65936;SDS011;52707;52.086;5.418;2023-08-08T03:00:21;14.38;;;4.22;;
65936;SDS011;52707;52.086;5.418;2023-08-08T03:02:47;16.30;;;4.68;;
65936;SDS011;52707;52.086;5.418;2023-08-08T03:05:13;23.77;;;5.25;;
65936;SDS011;52707;52.086;5.418;2023-08-08T03:07:40;15.27;;;4.40;;
65936;SDS011;52707;52.086;5.418;2023-08-08T03:10:06;17.17;;;4.07;;
65936;SDS011;52707;52.086;5.418;2023-08-08T03:12:33;19.08;;;4.18;;
65936;SDS011;52707;52.086;5.418;2023-08-08T03:14:59;16.80;;;4.75;;
65936;SDS011;52707;52.086;5.418;2023-08-08T03:17:25;16.50;;;4.57;;
65936;SDS011;52707;52.086;5.418;2023-08-08T03:19:52;16.52;;;4.55;;
65936;SDS011;52707;52.086;5.418;2023-08-08T03:22:18;14.88;;;3.95;;
65936;SDS011;52707;52.086;5.418;2023-08-08T03:24:45;16.38;;;4.47;;
65936;SDS011;52707;52.086;5.418;2023-08-08T03:27:11;18.13;;;4.60;;
65936;SDS011;52707;52.086;5.418;2023-08-08T03:29:37;16.42;;;5.13;;
65936;SDS011;52707;52.086;5.418;2023-08-08T03:32:04;13.63;;;4.43;;
65936;SDS011;52707;52.086;5.418;2023-08-08T03:34:31;17.50;;;4.78;;
65936;SDS011;52707;52.086;5.418;2023-08-08T03:36:59;15.57;;;5.05;;
65936;SDS011;52707;52.086;5.418;2023-08-08T03:39:25;16.73;;;4.70;;
65936;SDS011;52707;52.086;5.418;2023-08-08T03:41:52;33.60;;;5.80;;
65936;SDS011;52707;52.086;5.418;2023-08-08T03:44:19;23.80;;;4.55;;
65936;SDS011;52707;52.086;5.418;2023-08-08T03:46:45;20.77;;;4.97;;
65936;SDS011;52707;52.086;5.418;2023-08-08T03:49:12;18.80;;;5.45;;
65936;SDS011;52707;52.086;5.418;2023-08-08T03:51:38;24.75;;;5.82;;
65936;SDS011;52707;52.086;5.418;2023-08-08T03:54:05;22.88;;;5.18;;
65936;SDS011;52707;52.086;5.418;2023-08-08T03:56:31;16.13;;;4.43;;
65936;SDS011;52707;52.086;5.418;2023-08-08T03:58:57;19.52;;;4.93;;
65936;SDS011;52707;52.086;5.418;2023-08-08T04:01:24;16.38;;;4.80;;
65936;SDS011;52707;52.086;5.418;2023-08-08T04:03:50;20.02;;;4.93;;
65936;SDS011;52707;52.086;5.418;2023-08-08T04:06:16;21.13;;;5.43;;
65936;SDS011;52707;52.086;5.418;2023-08-08T04:08:43;21.50;;;5.25;;
65936;SDS011;52707;52.086;5.418;2023-08-08T04:11:09;26.35;;;5.05;;
65936;SDS011;52707;52.086;5.418;2023-08-08T04:13:35;12.52;;;4.38;;
65936;SDS011;52707;52.086;5.418;2023-08-08T04:16:03;16.77;;;4.35;;
65936;SDS011;52707;52.086;5.418;2023-08-08T04:18:29;15.43;;;5.03;;
65936;SDS011;52707;52.086;5.418;2023-08-08T04:20:55;19.60;;;4.90;;
65936;SDS011;52707;52.086;5.418;2023-08-08T04:23:22;17.05;;;4.80;;
65936;SDS011;52707;52.086;5.418;2023-08-08T04:25:52;20.20;;;4.85;;
65936;SDS011;52707;52.086;5.418;2023-08-08T04:28:18;11.95;;;4.60;;
65936;SDS011;52707;52.086;5.418;2023-08-08T04:30:45;24.65;;;4.88;;
65936;SDS011;52707;52.086;5.418;2023-08-08T04:33:11;20.75;;;5.22;;
65936;SDS011;52707;52.086;5.418;2023-08-08T04:35:38;12.15;;;4.32;;
65936;SDS011;52707;52.086;5.418;2023-08-08T04:38:04;19.35;;;5.00;;
65936;SDS011;52707;52.086;5.418;2023-08-08T04:40:30;17.38;;;4.57;;
65936;SDS011;52707;52.086;5.418;2023-08-08T04:42:57;15.65;;;4.75;;
65936;SDS011;52707;52.086;5.418;2023-08-08T04:45:24;16.90;;;4.63;;
65936;SDS011;52707;52.086;5.418;2023-08-08T04:47:53;13.93;;;4.57;;
65936;SDS011;52707;52.086;5.418;2023-08-08T04:50:19;20.88;;;5.35;;
65936;SDS011;52707;52.086;5.418;2023-08-08T04:52:46;15.75;;;4.28;;
65936;SDS011;52707;52.086;5.418;2023-08-08T04:55:12;15.20;;;5.25;;
65936;SDS011;52707;52.086;5.418;2023-08-08T04:57:38;23.13;;;5.15;;
65936;SDS011;52707;52.086;5.418;2023-08-08T05:00:05;20.35;;;5.40;;
65936;SDS011;52707;52.086;5.418;2023-08-08T05:02:34;18.33;;;5.68;;
65936;SDS011;52707;52.086;5.418;2023-08-08T05:05:01;21.67;;;5.97;;
65936;SDS011;52707;52.086;5.418;2023-08-08T05:07:27;17.15;;;5.15;;
65936;SDS011;52707;52.086;5.418;2023-08-08T05:09:54;17.40;;;4.90;;
65936;SDS011;52707;52.086;5.418;2023-08-08T05:12:20;17.08;;;4.75;;
65936;SDS011;52707;52.086;5.418;2023-08-08T05:14:47;14.88;;;5.30;;
65936;SDS011;52707;52.086;5.418;2023-08-08T05:17:13;15.27;;;4.60;;
65936;SDS011;52707;52.086;5.418;2023-08-08T05:19:39;21.42;;;4.90;;
65936;SDS011;52707;52.086;5.418;2023-08-08T05:22:05;17.73;;;5.00;;
65936;SDS011;52707;52.086;5.418;2023-08-08T05:24:32;16.30;;;5.00;;
65936;SDS011;52707;52.086;5.418;2023-08-08T05:26:58;13.80;;;4.95;;
65936;SDS011;52707;52.086;5.418;2023-08-08T05:29:25;18.30;;;4.78;;
65936;SDS011;52707;52.086;5.418;2023-08-08T05:31:52;18.75;;;4.45;;
65936;SDS011;52707;52.086;5.418;2023-08-08T05:34:19;15.75;;;4.85;;
65936;SDS011;52707;52.086;5.418;2023-08-08T05:36:45;17.90;;;4.45;;
65936;SDS011;52707;52.086;5.418;2023-08-08T05:39:11;16.90;;;4.10;;
65936;SDS011;52707;52.086;5.418;2023-08-08T05:41:38;12.05;;;3.85;;
65936;SDS011;52707;52.086;5.418;2023-08-08T05:44:04;9.43;;;3.63;;
65936;SDS011;52707;52.086;5.418;2023-08-08T05:46:30;22.20;;;3.50;;
65936;SDS011;52707;52.086;5.418;2023-08-08T05:48:57;15.98;;;3.50;;
65936;SDS011;52707;52.086;5.418;2023-08-08T05:51:23;13.43;;;3.85;;
65936;SDS011;52707;52.086;5.418;2023-08-08T05:53:50;9.23;;;3.53;;
65936;SDS011;52707;52.086;5.418;2023-08-08T05:56:16;10.80;;;3.33;;
65936;SDS011;52707;52.086;5.418;2023-08-08T05:58:42;11.38;;;3.38;;
65936;SDS011;52707;52.086;5.418;2023-08-08T06:01:09;9.57;;;2.65;;
65936;SDS011;52707;52.086;5.418;2023-08-08T06:03:38;12.80;;;2.05;;
65936;SDS011;52707;52.086;5.418;2023-08-08T06:06:04;9.85;;;2.13;;
65936;SDS011;52707;52.086;5.418;2023-08-08T06:08:31;8.63;;;2.40;;
65936;SDS011;52707;52.086;5.418;2023-08-08T06:10:58;11.23;;;2.10;;
65936;SDS011;52707;52.086;5.418;2023-08-08T06:13:24;8.05;;;2.03;;
65936;SDS011;52707;52.086;5.418;2023-08-08T06:15:51;7.35;;;2.20;;
65936;SDS011;52707;52.086;5.418;2023-08-08T06:18:17;10.13;;;2.13;;
65936;SDS011;52707;52.086;5.418;2023-08-08T06:20:43;11.23;;;1.83;;
65936;SDS011;52707;52.086;5.418;2023-08-08T06:23:10;6.82;;;1.70;;
65936;SDS011;52707;52.086;5.418;2023-08-08T06:25:36;9.05;;;1.80;;
65936;SDS011;52707;52.086;5.418;2023-08-08T06:28:05;9.00;;;1.42;;
65936;SDS011;52707;52.086;5.418;2023-08-08T06:30:32;4.28;;;1.50;;
65936;SDS011;52707;52.086;5.418;2023-08-08T06:32:59;5.30;;;1.42;;
65936;SDS011;52707;52.086;5.418;2023-08-08T06:35:25;11.65;;;1.83;;
65936;SDS011;52707;52.086;5.418;2023-08-08T06:37:52;11.30;;;1.80;;
65936;SDS011;52707;52.086;5.418;2023-08-08T06:40:18;13.05;;;1.67;;
65936;SDS011;52707;52.086;5.418;2023-08-08T06:42:44;9.98;;;1.65;;
65936;SDS011;52707;52.086;5.418;2023-08-08T06:45:11;5.45;;;1.25;;
65936;SDS011;52707;52.086;5.418;2023-08-08T06:47:37;6.10;;;1.38;;
65936;SDS011;52707;52.086;5.418;2023-08-08T06:50:04;8.38;;;1.20;;
65936;SDS011;52707;52.086;5.418;2023-08-08T06:52:31;12.13;;;1.60;;
65936;SDS011;52707;52.086;5.418;2023-08-08T06:54:57;8.45;;;1.55;;
65936;SDS011;52707;52.086;5.418;2023-08-08T06:57:24;5.88;;;0.90;;
65936;SDS011;52707;52.086;5.418;2023-08-08T06:59:50;5.40;;;1.10;;
65936;SDS011;52707;52.086;5.418;2023-08-08T07:02:19;6.78;;;1.35;;
65936;SDS011;52707;52.086;5.418;2023-08-08T07:04:46;4.80;;;1.05;;
65936;SDS011;52707;52.086;5.418;2023-08-08T07:07:12;7.15;;;1.60;;
65936;SDS011;52707;52.086;5.418;2023-08-08T07:09:38;6.35;;;1.13;;
65936;SDS011;52707;52.086;5.418;2023-08-08T07:12:05;8.52;;;1.25;;
65936;SDS011;52707;52.086;5.418;2023-08-08T07:14:32;4.78;;;1.02;;
65936;SDS011;52707;52.086;5.418;2023-08-08T07:16:59;6.20;;;1.10;;
65936;SDS011;52707;52.086;5.418;2023-08-08T07:19:25;6.53;;;0.95;;
65936;SDS011;52707;52.086;5.418;2023-08-08T07:21:52;4.00;;;1.10;;
65936;SDS011;52707;52.086;5.418;2023-08-08T07:24:18;9.50;;;1.25;;
65936;SDS011;52707;52.086;5.418;2023-08-08T07:26:46;5.75;;;1.33;;
65936;SDS011;52707;52.086;5.418;2023-08-08T07:29:12;7.50;;;1.30;;
65936;SDS011;52707;52.086;5.418;2023-08-08T07:31:39;8.27;;;1.17;;
65936;SDS011;52707;52.086;5.418;2023-08-08T07:34:05;3.53;;;0.95;;
65936;SDS011;52707;52.086;5.418;2023-08-08T07:36:31;7.32;;;1.20;;
65936;SDS011;52707;52.086;5.418;2023-08-08T07:38:58;4.38;;;0.85;;
65936;SDS011;52707;52.086;5.418;2023-08-08T07:41:26;2.53;;;0.98;;
65936;SDS011;52707;52.086;5.418;2023-08-08T07:43:53;6.68;;;1.52;;
65936;SDS011;52707;52.086;5.418;2023-08-08T07:46:19;4.47;;;1.08;;
65936;SDS011;52707;52.086;5.418;2023-08-08T07:48:46;4.75;;;0.80;;
65936;SDS011;52707;52.086;5.418;2023-08-08T07:51:12;3.10;;;0.70;;
65936;SDS011;52707;52.086;5.418;2023-08-08T07:53:39;11.23;;;1.80;;
65936;SDS011;52707;52.086;5.418;2023-08-08T07:56:05;4.55;;;1.08;;
65936;SDS011;52707;52.086;5.418;2023-08-08T07:58:32;5.57;;;0.80;;
65936;SDS011;52707;52.086;5.418;2023-08-08T08:00:58;3.55;;;0.82;;
65936;SDS011;52707;52.086;5.418;2023-08-08T08:03:28;3.83;;;0.83;;
65936;SDS011;52707;52.086;5.418;2023-08-08T08:05:55;2.72;;;1.02;;
65936;SDS011;52707;52.086;5.418;2023-08-08T08:08:21;5.15;;;1.05;;
65936;SDS011;52707;52.086;5.418;2023-08-08T08:10:47;5.53;;;1.02;;
65936;SDS011;52707;52.086;5.418;2023-08-08T08:13:14;4.80;;;0.95;;
65936;SDS011;52707;52.086;5.418;2023-08-08T08:15:41;2.10;;;0.80;;
65936;SDS011;52707;52.086;5.418;2023-08-08T08:18:07;3.15;;;0.70;;
65936;SDS011;52707;52.086;5.418;2023-08-08T08:20:33;6.20;;;1.38;;
65936;SDS011;52707;52.086;5.418;2023-08-08T08:23:00;3.42;;;0.60;;
65936;SDS011;52707;52.086;5.418;2023-08-08T08:25:26;2.55;;;0.55;;
65936;SDS011;52707;52.086;5.418;2023-08-08T08:27:53;4.60;;;0.70;;
65936;SDS011;52707;52.086;5.418;2023-08-08T08:30:19;4.53;;;1.00;;
65936;SDS011;52707;52.086;5.418;2023-08-08T08:32:46;7.72;;;0.98;;
65936;SDS011;52707;52.086;5.418;2023-08-08T08:35:12;2.88;;;0.73;;
65936;SDS011;52707;52.086;5.418;2023-08-08T08:37:39;2.83;;;0.70;;
65936;SDS011;52707;52.086;5.418;2023-08-08T08:40:05;1.70;;;0.50;;
65936;SDS011;52707;52.086;5.418;2023-08-08T08:42:32;4.15;;;0.60;;
65936;SDS011;52707;52.086;5.418;2023-08-08T08:44:59;2.00;;;0.60;;
65936;SDS011;52707;52.086;5.418;2023-08-08T08:47:27;9.07;;;0.93;;
65936;SDS011;52707;52.086;5.418;2023-08-08T08:49:56;1.75;;;0.60;;
65936;SDS011;52707;52.086;5.418;2023-08-08T08:52:22;1.23;;;0.50;;
65936;SDS011;52707;52.086;5.418;2023-08-08T08:54:52;1.83;;;1.10;;
65936;SDS011;52707;52.086;5.418;2023-08-08T08:57:20;8.77;;;1.20;;
65936;SDS011;52707;52.086;5.418;2023-08-08T08:59:47;6.78;;;0.85;;
65936;SDS011;52707;52.086;5.418;2023-08-08T09:02:13;2.65;;;0.82;;
65936;SDS011;52707;52.086;5.418;2023-08-08T09:04:40;3.95;;;0.93;;
65936;SDS011;52707;52.086;5.418;2023-08-08T09:07:06;1.33;;;0.52;;
65936;SDS011;52707;52.086;5.418;2023-08-08T09:09:33;2.67;;;0.50;;
65936;SDS011;52707;52.086;5.418;2023-08-08T09:12:00;1.20;;;0.63;;
65936;SDS011;52707;52.086;5.418;2023-08-08T09:14:27;2.50;;;0.98;;
65936;SDS011;52707;52.086;5.418;2023-08-08T09:16:54;3.40;;;0.40;;
65936;SDS011;52707;52.086;5.418;2023-08-08T09:19:21;2.78;;;0.70;;
65936;SDS011;52707;52.086;5.418;2023-08-08T09:21:47;1.23;;;0.43;;
65936;SDS011;52707;52.086;5.418;2023-08-08T09:24:14;7.82;;;0.90;;
65936;SDS011;52707;52.086;5.418;2023-08-08T09:26:41;2.55;;;0.73;;
65936;SDS011;52707;52.086;5.418;2023-08-08T09:29:07;6.80;;;0.88;;
65936;SDS011;52707;52.086;5.418;2023-08-08T09:31:34;3.08;;;0.77;;
65936;SDS011;52707;52.086;5.418;2023-08-08T09:34:01;1.60;;;0.65;;
65936;SDS011;52707;52.086;5.418;2023-08-08T09:36:28;3.35;;;0.68;;
65936;SDS011;52707;52.086;5.418;2023-08-08T09:38:57;1.90;;;0.70;;
65936;SDS011;52707;52.086;5.418;2023-08-08T09:41:24;1.42;;;0.70;;
65936;SDS011;52707;52.086;5.418;2023-08-08T09:43:51;1.85;;;0.70;;
65936;SDS011;52707;52.086;5.418;2023-08-08T09:46:20;3.08;;;0.57;;
65936;SDS011;52707;52.086;5.418;2023-08-08T09:48:47;2.65;;;0.50;;
65936;SDS011;52707;52.086;5.418;2023-08-08T09:51:14;4.78;;;0.88;;
65936;SDS011;52707;52.086;5.418;2023-08-08T09:53:41;1.15;;;0.60;;
65936;SDS011;52707;52.086;5.418;2023-08-08T09:56:08;2.72;;;1.02;;
65936;SDS011;52707;52.086;5.418;2023-08-08T09:58:34;2.33;;;0.98;;
65936;SDS011;52707;52.086;5.418;2023-08-08T10:01:01;1.95;;;0.82;;
65936;SDS011;52707;52.086;5.418;2023-08-08T10:03:27;3.22;;;0.70;;
65936;SDS011;52707;52.086;5.418;2023-08-08T10:05:54;3.38;;;0.70;;
65936;SDS011;52707;52.086;5.418;2023-08-08T10:08:21;4.68;;;0.70;;
65936;SDS011;52707;52.086;5.418;2023-08-08T10:10:48;4.03;;;0.73;;
65936;SDS011;52707;52.086;5.418;2023-08-08T10:13:19;2.10;;;1.00;;
65936;SDS011;52707;52.086;5.418;2023-08-08T10:15:45;0.98;;;0.63;;
65936;SDS011;52707;52.086;5.418;2023-08-08T10:18:12;2.20;;;0.80;;
65936;SDS011;52707;52.086;5.418;2023-08-08T10:20:39;0.95;;;0.70;;
65936;SDS011;52707;52.086;5.418;2023-08-08T10:23:08;2.70;;;0.60;;
65936;SDS011;52707;52.086;5.418;2023-08-08T10:25:34;5.38;;;0.90;;
65936;SDS011;52707;52.086;5.418;2023-08-08T10:28:20;2.15;;;0.70;;
65936;SDS011;52707;52.086;5.418;2023-08-08T10:33:19;6.60;;;0.88;;
65936;SDS011;52707;52.086;5.418;2023-08-08T10:36:03;7.53;;;0.98;;
65936;SDS011;52707;52.086;5.418;2023-08-08T10:38:39;2.78;;;1.00;;
65936;SDS011;52707;52.086;5.418;2023-08-08T10:41:08;1.23;;;0.68;;
65936;SDS011;52707;52.086;5.418;2023-08-08T10:43:35;2.15;;;0.88;;
65936;SDS011;52707;52.086;5.418;2023-08-08T10:46:02;1.92;;;0.80;;
65936;SDS011;52707;52.086;5.418;2023-08-08T10:48:48;4.55;;;0.85;;
65936;SDS011;52707;52.086;5.418;2023-08-08T10:51:15;0.68;;;0.60;;
65936;SDS011;52707;52.086;5.418;2023-08-08T10:53:43;6.13;;;0.90;;
65936;SDS011;52707;52.086;5.418;2023-08-08T10:56:12;1.88;;;0.63;;
65936;SDS011;52707;52.086;5.418;2023-08-08T10:58:41;3.25;;;0.82;;
65936;SDS011;52707;52.086;5.418;2023-08-08T11:01:08;4.10;;;0.73;;
65936;SDS011;52707;52.086;5.418;2023-08-08T11:03:35;2.25;;;0.68;;
65936;SDS011;52707;52.086;5.418;2023-08-08T11:06:03;1.63;;;0.60;;
65936;SDS011;52707;52.086;5.418;2023-08-08T11:08:30;2.42;;;0.70;;
65936;SDS011;52707;52.086;5.418;2023-08-08T11:10:58;0.85;;;0.65;;
65936;SDS011;52707;52.086;5.418;2023-08-08T11:13:25;4.28;;;0.60;;
65936;SDS011;52707;52.086;5.418;2023-08-08T11:15:52;2.67;;;0.75;;
65936;SDS011;52707;52.086;5.418;2023-08-08T11:18:21;1.23;;;0.70;;
65936;SDS011;52707;52.086;5.418;2023-08-08T11:20:48;4.28;;;0.75;;
65936;SDS011;52707;52.086;5.418;2023-08-08T11:23:15;1.15;;;0.52;;
65936;SDS011;52707;52.086;5.418;2023-08-08T11:25:44;1.58;;;0.57;;
65936;SDS011;52707;52.086;5.418;2023-08-08T11:28:12;4.45;;;1.30;;
65936;SDS011;52707;52.086;5.418;2023-08-08T11:30:42;2.78;;;0.60;;
65936;SDS011;52707;52.086;5.418;2023-08-08T11:33:08;1.92;;;0.80;;
65936;SDS011;52707;52.086;5.418;2023-08-08T11:35:42;0.87;;;0.70;;
65936;SDS011;52707;52.086;5.418;2023-08-08T11:38:09;2.42;;;1.02;;
65936;SDS011;52707;52.086;5.418;2023-08-08T11:40:36;6.28;;;0.70;;
65936;SDS011;52707;52.086;5.418;2023-08-08T11:43:02;1.70;;;0.70;;
65936;SDS011;52707;52.086;5.418;2023-08-08T11:45:28;1.75;;;0.65;;
65936;SDS011;52707;52.086;5.418;2023-08-08T11:47:55;5.50;;;0.70;;
65936;SDS011;52707;52.086;5.418;2023-08-08T11:50:23;4.93;;;0.60;;
65936;SDS011;52707;52.086;5.418;2023-08-08T11:52:53;6.15;;;1.02;;
65936;SDS011;52707;52.086;5.418;2023-08-08T11:57:50;1.17;;;0.68;;
65936;SDS011;52707;52.086;5.418;2023-08-08T12:00:16;4.38;;;0.80;;
65936;SDS011;52707;52.086;5.418;2023-08-08T12:02:44;3.00;;;0.82;;
65936;SDS011;52707;52.086;5.418;2023-08-08T12:05:12;3.38;;;0.70;;
65936;SDS011;52707;52.086;5.418;2023-08-08T12:07:39;2.33;;;0.70;;
65936;SDS011;52707;52.086;5.418;2023-08-08T12:10:18;6.35;;;1.20;;
65936;SDS011;52707;52.086;5.418;2023-08-08T12:12:46;2.90;;;0.70;;
65936;SDS011;52707;52.086;5.418;2023-08-08T12:15:13;1.83;;;0.70;;
65936;SDS011;52707;52.086;5.418;2023-08-08T12:17:42;1.55;;;0.70;;
65936;SDS011;52707;52.086;5.418;2023-08-08T12:20:09;3.88;;;1.05;;
65936;SDS011;52707;52.086;5.418;2023-08-08T12:22:36;7.18;;;0.88;;
65936;SDS011;52707;52.086;5.418;2023-08-08T12:25:03;5.90;;;1.20;;
65936;SDS011;52707;52.086;5.418;2023-08-08T12:27:30;1.73;;;0.93;;
65936;SDS011;52707;52.086;5.418;2023-08-08T12:29:56;2.25;;;0.98;;
65936;SDS011;52707;52.086;5.418;2023-08-08T12:32:24;3.08;;;0.68;;
65936;SDS011;52707;52.086;5.418;2023-08-08T12:34:53;3.65;;;0.85;;
65936;SDS011;52707;52.086;5.418;2023-08-08T12:37:19;0.65;;;0.50;;
65936;SDS011;52707;52.086;5.418;2023-08-08T12:39:45;3.40;;;1.23;;
65936;SDS011;52707;52.086;5.418;2023-08-08T12:42:12;6.50;;;0.90;;
65936;SDS011;52707;52.086;5.418;2023-08-08T12:44:39;2.50;;;0.90;;
65936;SDS011;52707;52.086;5.418;2023-08-08T12:47:05;3.92;;;0.63;;
65936;SDS011;52707;52.086;5.418;2023-08-08T12:49:32;1.20;;;0.60;;
65936;SDS011;52707;52.086;5.418;2023-08-08T12:51:58;4.25;;;0.90;;
65936;SDS011;52707;52.086;5.418;2023-08-08T12:54:24;2.28;;;0.90;;
65936;SDS011;52707;52.086;5.418;2023-08-08T12:56:52;5.55;;;1.20;;
65936;SDS011;52707;52.086;5.418;2023-08-08T12:59:18;2.25;;;0.82;;
65936;SDS011;52707;52.086;5.418;2023-08-08T13:01:45;3.60;;;1.05;;
65936;SDS011;52707;52.086;5.418;2023-08-08T13:04:11;4.35;;;1.27;;
65936;SDS011;52707;52.086;5.418;2023-08-08T13:06:46;0.70;;;0.50;;
65936;SDS011;52707;52.086;5.418;2023-08-08T13:09:13;1.48;;;0.90;;
65936;SDS011;52707;52.086;5.418;2023-08-08T13:11:39;11.68;;;1.10;;
65936;SDS011;52707;52.086;5.418;2023-08-08T13:14:06;2.38;;;0.80;;
65936;SDS011;52707;52.086;5.418;2023-08-08T13:16:32;6.85;;;0.95;;
65936;SDS011;52707;52.086;5.418;2023-08-08T13:18:59;2.05;;;0.80;;
65936;SDS011;52707;52.086;5.418;2023-08-08T13:21:25;2.88;;;0.88;;
65936;SDS011;52707;52.086;5.418;2023-08-08T13:23:52;3.90;;;1.38;;
65936;SDS011;52707;52.086;5.418;2023-08-08T13:26:18;2.13;;;0.90;;
65936;SDS011;52707;52.086;5.418;2023-08-08T13:28:45;1.80;;;0.77;;
65936;SDS011;52707;52.086;5.418;2023-08-08T13:31:11;3.70;;;0.88;;
65936;SDS011;52707;52.086;5.418;2023-08-08T13:33:38;4.53;;;1.08;;
65936;SDS011;52707;52.086;5.418;2023-08-08T13:36:04;3.08;;;1.13;;
65936;SDS011;52707;52.086;5.418;2023-08-08T13:38:31;2.75;;;0.80;;
65936;SDS011;52707;52.086;5.418;2023-08-08T13:40:57;5.20;;;1.20;;
65936;SDS011;52707;52.086;5.418;2023-08-08T13:43:24;7.47;;;1.02;;
65936;SDS011;52707;52.086;5.418;2023-08-08T13:45:50;7.53;;;1.63;;
65936;SDS011;52707;52.086;5.418;2023-08-08T13:48:17;2.95;;;1.20;;
65936;SDS011;52707;52.086;5.418;2023-08-08T13:50:44;6.35;;;1.25;;
65936;SDS011;52707;52.086;5.418;2023-08-08T13:53:10;5.63;;;0.98;;
65936;SDS011;52707;52.086;5.418;2023-08-08T13:55:36;3.28;;;0.82;;
65936;SDS011;52707;52.086;5.418;2023-08-08T13:58:06;5.00;;;1.17;;
65936;SDS011;52707;52.086;5.418;2023-08-08T14:00:32;9.68;;;1.02;;
65936;SDS011;52707;52.086;5.418;2023-08-08T14:03:00;3.40;;;0.98;;
65936;SDS011;52707;52.086;5.418;2023-08-08T14:05:27;2.90;;;0.88;;
65936;SDS011;52707;52.086;5.418;2023-08-08T14:07:54;3.35;;;0.90;;
65936;SDS011;52707;52.086;5.418;2023-08-08T14:10:21;1.00;;;0.63;;
65936;SDS011;52707;52.086;5.418;2023-08-08T14:12:47;5.50;;;0.93;;
65936;SDS011;52707;52.086;5.418;2023-08-08T14:15:13;5.05;;;1.05;;
65936;SDS011;52707;52.086;5.418;2023-08-08T14:17:40;4.15;;;0.93;;
65936;SDS011;52707;52.086;5.418;2023-08-08T14:20:06;6.65;;;1.67;;
65936;SDS011;52707;52.086;5.418;2023-08-08T14:22:33;3.45;;;0.73;;
65936;SDS011;52707;52.086;5.418;2023-08-08T14:25:00;1.92;;;0.80;;
65936;SDS011;52707;52.086;5.418;2023-08-08T14:27:26;5.68;;;0.98;;
65936;SDS011;52707;52.086;5.418;2023-08-08T14:29:52;3.58;;;0.73;;
65936;SDS011;52707;52.086;5.418;2023-08-08T14:32:19;1.92;;;0.75;;
65936;SDS011;52707;52.086;5.418;2023-08-08T14:34:45;2.78;;;0.77;;
65936;SDS011;52707;52.086;5.418;2023-08-08T14:37:12;3.10;;;1.05;;
65936;SDS011;52707;52.086;5.418;2023-08-08T14:39:38;3.42;;;0.88;;
65936;SDS011;52707;52.086;5.418;2023-08-08T14:42:05;2.10;;;0.85;;
65936;SDS011;52707;52.086;5.418;2023-08-08T14:44:31;4.97;;;0.80;;
65936;SDS011;52707;52.086;5.418;2023-08-08T14:46:57;4.00;;;1.27;;
65936;SDS011;52707;52.086;5.418;2023-08-08T14:49:24;3.58;;;0.95;;
65936;SDS011;52707;52.086;5.418;2023-08-08T14:51:52;6.28;;;1.77;;